sensor_id;sensor_type;location;lat;lon;timestamp;pressure;altitude;pressure_sealevel;temperature;humidity
35331;BME280;21441;52.190;20.910;2022-10-16T00:02:26;100239.94;;;14.18;100.00
35331;BME280;21441;52.190;20.910;2022-10-16T00:04:53;100244.91;;;14.21;100.00
35331;BME280;21441;52.190;20.910;2022-10-16T00:07:20;100236.72;;;14.30;100.00
35331;BME280;21441;52.190;20.910;2022-10-16T00:09:47;100236.22;;;14.19;100.00
35331;BME280;21441;52.190;20.910;2022-10-16T00:12:13;100241.69;;;14.33;100.00
35331;BME280;21441;52.190;20.910;2022-10-16T00:14:42;100240.03;;;14.32;100.00
35331;BME280;21441;52.190;20.910;2022-10-16T00:17:09;100238.44;;;14.44;100.00
35331;BME280;21441;52.190;20.910;2022-10-16T00:19:36;100236.53;;;14.38;100.00
35331;BME280;21441;52.190;20.910;2022-10-16T00:22:03;100238.44;;;14.44;100.00
35331;BME280;21441;52.190;20.910;2022-10-16T00:24:30;100240.13;;;14.45;100.00
35331;BME280;21441;52.190;20.910;2022-10-16T00:26:57;100244.03;;;14.42;100.00
35331;BME280;21441;52.190;20.910;2022-10-16T00:29:24;100245.63;;;14.37;100.00
35331;BME280;21441;52.190;20.910;2022-10-16T00:31:52;100239.34;;;14.23;100.00
35331;BME280;21441;52.190;20.910;2022-10-16T00:34:19;100243.81;;;14.16;100.00
35331;BME280;21441;52.190;20.910;2022-10-16T00:36:46;100250.34;;;14.07;100.00
35331;BME280;21441;52.190;20.910;2022-10-16T00:39:13;100247.25;;;14.03;100.00
35331;BME280;21441;52.190;20.910;2022-10-16T00:41:40;100251.13;;;14.00;100.00
35331;BME280;21441;52.190;20.910;2022-10-16T00:47:10;100257.22;;;13.66;100.00
35331;BME280;21441;52.190;20.910;2022-10-16T00:49:38;100257.41;;;13.65;100.00
35331;BME280;21441;52.190;20.910;2022-10-16T00:52:05;100269.50;;;13.60;100.00
35331;BME280;21441;52.190;20.910;2022-10-16T00:54:33;100265.44;;;13.65;100.00
35331;BME280;21441;52.190;20.910;2022-10-16T00:57:03;100270.22;;;13.69;100.00
35331;BME280;21441;52.190;20.910;2022-10-16T00:59:33;100256.13;;;13.60;100.00
35331;BME280;21441;52.190;20.910;2022-10-16T01:02:02;100252.28;;;13.70;100.00
35331;BME280;21441;52.190;20.910;2022-10-16T01:04:34;100269.97;;;13.64;100.00
35331;BME280;21441;52.190;20.910;2022-10-16T01:07:06;100265.38;;;13.58;100.00
35331;BME280;21441;52.190;20.910;2022-10-16T01:09:43;100266.94;;;13.52;100.00
35331;BME280;21441;52.190;20.910;2022-10-16T01:12:16;100265.75;;;13.55;100.00
35331;BME280;21441;52.190;20.910;2022-10-16T01:14:48;100259.28;;;13.49;100.00
35331;BME280;21441;52.190;20.910;2022-10-16T01:17:21;100265.75;;;13.55;100.00
35331;BME280;21441;52.190;20.910;2022-10-16T01:20:02;100273.22;;;13.59;100.00
35331;BME280;21441;52.190;20.910;2022-10-16T01:22:38;100260.41;;;13.55;100.00
35331;BME280;21441;52.190;20.910;2022-10-16T01:25:11;100275.84;;;13.53;100.00
35331;BME280;21441;52.190;20.910;2022-10-16T01:27:42;100272.00;;;13.62;100.00
35331;BME280;21441;52.190;20.910;2022-10-16T01:30:16;100283.06;;;13.74;100.00
35331;BME280;21441;52.190;20.910;2022-10-16T01:32:49;100283.41;;;13.49;100.00
35331;BME280;21441;52.190;20.910;2022-10-16T01:35:22;100286.94;;;13.71;100.00
35331;BME280;21441;52.190;20.910;2022-10-16T01:37:52;100298.94;;;13.75;100.00
35331;BME280;21441;52.190;20.910;2022-10-16T01:40:23;100295.44;;;13.75;100.00
35331;BME280;21441;52.190;20.910;2022-10-16T01:42:56;100297.84;;;13.70;100.00
35331;BME280;21441;52.190;20.910;2022-10-16T01:45:28;100296.06;;;13.55;100.00
35331;BME280;21441;52.190;20.910;2022-10-16T01:47:56;100285.78;;;13.59;100.00
35331;BME280;21441;52.190;20.910;2022-10-16T01:50:26;100287.00;;;13.56;100.00
35331;BME280;21441;52.190;20.910;2022-10-16T01:52:56;100286.34;;;13.54;100.00
35331;BME280;21441;52.190;20.910;2022-10-16T01:55:28;100279.63;;;13.44;100.00
35331;BME280;21441;52.190;20.910;2022-10-16T01:57:57;100281.84;;;13.55;100.00
35331;BME280;21441;52.190;20.910;2022-10-16T02:00:27;100282.78;;;13.47;100.00
35331;BME280;21441;52.190;20.910;2022-10-16T02:02:57;100285.91;;;13.51;100.00
35331;BME280;21441;52.190;20.910;2022-10-16T02:05:27;100282.84;;;13.54;100.00
35331;BME280;21441;52.190;20.910;2022-10-16T02:07:56;100283.88;;;13.53;100.00
35331;BME280;21441;52.190;20.910;2022-10-16T02:10:24;100279.97;;;13.55;100.00
35331;BME280;21441;52.190;20.910;2022-10-16T02:12:59;100283.22;;;13.51;100.00
35331;BME280;21441;52.190;20.910;2022-10-16T02:15:27;100280.84;;;13.41;100.00
35331;BME280;21441;52.190;20.910;2022-10-16T02:17:55;100278.69;;;13.51;100.00
35331;BME280;21441;52.190;20.910;2022-10-16T02:20:25;100275.22;;;13.36;100.00
35331;BME280;21441;52.190;20.910;2022-10-16T02:22:54;100276.13;;;13.43;100.00
35331;BME280;21441;52.190;20.910;2022-10-16T02:25:26;100276.69;;;13.24;100.00
35331;BME280;21441;52.190;20.910;2022-10-16T02:27:57;100278.53;;;13.23;100.00
35331;BME280;21441;52.190;20.910;2022-10-16T02:30:30;100272.38;;;13.08;100.00
35331;BME280;21441;52.190;20.910;2022-10-16T02:33:02;100267.22;;;12.91;100.00
35331;BME280;21441;52.190;20.910;2022-10-16T02:35:31;100274.97;;;13.01;100.00
35331;BME280;21441;52.190;20.910;2022-10-16T02:37:58;100277.81;;;12.99;100.00
35331;BME280;21441;52.190;20.910;2022-10-16T02:40:26;100283.91;;;13.08;100.00
35331;BME280;21441;52.190;20.910;2022-10-16T02:42:55;100288.09;;;13.11;100.00
35331;BME280;21441;52.190;20.910;2022-10-16T02:45:23;100288.16;;;13.17;100.00
35331;BME280;21441;52.190;20.910;2022-10-16T02:47:50;100287.16;;;13.04;100.00
35331;BME280;21441;52.190;20.910;2022-10-16T02:50:17;100284.28;;;13.05;100.00
35331;BME280;21441;52.190;20.910;2022-10-16T02:52:44;100288.59;;;13.21;100.00
35331;BME280;21441;52.190;20.910;2022-10-16T02:55:11;100291.94;;;13.38;100.00
35331;BME280;21441;52.190;20.910;2022-10-16T02:57:38;100292.03;;;13.30;100.00
35331;BME280;21441;52.190;20.910;2022-10-16T03:00:07;100302.22;;;13.19;100.00
35331;BME280;21441;52.190;20.910;2022-10-16T03:02:35;100304.88;;;13.19;100.00
35331;BME280;21441;52.190;20.910;2022-10-16T03:05:02;100299.09;;;13.31;100.00
35331;BME280;21441;52.190;20.910;2022-10-16T03:07:29;100305.50;;;13.21;100.00
35331;BME280;21441;52.190;20.910;2022-10-16T03:09:56;100302.22;;;13.19;100.00
35331;BME280;21441;52.190;20.910;2022-10-16T03:12:25;100296.09;;;13.26;100.00
35331;BME280;21441;52.190;20.910;2022-10-16T03:14:52;100310.88;;;13.21;100.00
35331;BME280;21441;52.190;20.910;2022-10-16T03:17:19;100297.88;;;13.33;100.00
35331;BME280;21441;52.190;20.910;2022-10-16T03:19:47;100313.84;;;13.27;100.00
35331;BME280;21441;52.190;20.910;2022-10-16T03:22:14;100316.53;;;13.12;100.00
35331;BME280;21441;52.190;20.910;2022-10-16T03:24:41;100306.34;;;13.22;100.00
35331;BME280;21441;52.190;20.910;2022-10-16T03:27:08;100316.59;;;13.18;100.00
35331;BME280;21441;52.190;20.910;2022-10-16T03:29:35;100317.91;;;13.08;100.00
35331;BME280;21441;52.190;20.910;2022-10-16T03:32:02;100324.81;;;13.17;100.00
35331;BME280;21441;52.190;20.910;2022-10-16T03:34:29;100320.50;;;13.16;100.00
35331;BME280;21441;52.190;20.910;2022-10-16T03:36:58;100326.97;;;13.07;100.00
35331;BME280;21441;52.190;20.910;2022-10-16T03:39:25;100320.50;;;13.01;100.00
35331;BME280;21441;52.190;20.910;2022-10-16T03:41:52;100320.22;;;13.11;100.00
35331;BME280;21441;52.190;20.910;2022-10-16T03:44:19;100330.81;;;13.04;100.00
35331;BME280;21441;52.190;20.910;2022-10-16T03:46:46;100325.84;;;13.01;100.00
35331;BME280;21441;52.190;20.910;2022-10-16T03:49:13;100330.47;;;13.07;100.00
35331;BME280;21441;52.190;20.910;2022-10-16T03:51:40;100328.69;;;12.99;100.00
35331;BME280;21441;52.190;20.910;2022-10-16T03:54:09;100326.50;;;13.03;100.00
35331;BME280;21441;52.190;20.910;2022-10-16T03:56:36;100322.25;;;12.94;100.00
35331;BME280;21441;52.190;20.910;2022-10-16T03:59:03;100321.69;;;12.84;100.00
35331;BME280;21441;52.190;20.910;2022-10-16T04:01:31;100329.63;;;12.92;100.00
35331;BME280;21441;52.190;20.910;2022-10-16T04:03:58;100328.72;;;12.85;100.00
35331;BME280;21441;52.190;20.910;2022-10-16T04:06:25;100336.84;;;12.91;100.00
35331;BME280;21441;52.190;20.910;2022-10-16T04:08:52;100331.19;;;12.86;100.00
35331;BME280;21441;52.190;20.910;2022-10-16T04:11:20;100325.56;;;12.81;100.00
35331;BME280;21441;52.190;20.910;2022-10-16T04:13:47;100318.56;;;12.80;100.00
35331;BME280;21441;52.190;20.910;2022-10-16T04:16:13;100321.69;;;12.84;100.00
35331;BME280;21441;52.190;20.910;2022-10-16T04:18:40;100333.44;;;12.83;100.00
35331;BME280;21441;52.190;20.910;2022-10-16T04:21:08;100336.19;;;12.89;100.00
35331;BME280;21441;52.190;20.910;2022-10-16T04:23:35;100345.34;;;12.80;100.00
35331;BME280;21441;52.190;20.910;2022-10-16T04:26:01;100348.09;;;12.87;100.00
35331;BME280;21441;52.190;20.910;2022-10-16T04:28:30;100345.78;;;12.84;100.00
35331;BME280;21441;52.190;20.910;2022-10-16T04:30:57;100343.19;;;12.90;100.00
35331;BME280;21441;52.190;20.910;2022-10-16T04:33:24;100352.34;;;12.81;100.00
35331;BME280;21441;52.190;20.910;2022-10-16T04:35:56;100350.69;;;12.80;100.00
35331;BME280;21441;52.190;20.910;2022-10-16T04:38:23;100354.00;;;12.67;100.00
35331;BME280;21441;52.190;20.910;2022-10-16T04:40:50;100355.63;;;12.68;100.00
35331;BME280;21441;52.190;20.910;2022-10-16T04:43:17;100351.84;;;12.63;100.00
35331;BME280;21441;52.190;20.910;2022-10-16T04:45:45;100356.66;;;12.67;100.00
35331;BME280;21441;52.190;20.910;2022-10-16T04:48:13;100351.28;;;12.52;100.00
35331;BME280;21441;52.190;20.910;2022-10-16T04:50:39;100360.38;;;12.43;100.00
35331;BME280;21441;52.190;20.910;2022-10-16T04:53:07;100355.22;;;12.42;100.00
35331;BME280;21441;52.190;20.910;2022-10-16T04:55:34;100365.63;;;12.36;100.00
35331;BME280;21441;52.190;20.910;2022-10-16T04:58:01;100357.88;;;12.42;100.00
35331;BME280;21441;52.190;20.910;2022-10-16T05:00:28;100355.09;;;12.35;100.00
35331;BME280;21441;52.190;20.910;2022-10-16T05:02:57;100364.38;;;12.24;100.00
35331;BME280;21441;52.190;20.910;2022-10-16T05:05:25;100366.81;;;12.34;100.00
35331;BME280;21441;52.190;20.910;2022-10-16T05:07:53;100375.03;;;12.32;100.00
35331;BME280;21441;52.190;20.910;2022-10-16T05:10:20;100372.50;;;12.31;100.00
35331;BME280;21441;52.190;20.910;2022-10-16T05:12:47;100382.03;;;12.33;100.00
35331;BME280;21441;52.190;20.910;2022-10-16T05:15:14;100375.56;;;12.28;100.00
35331;BME280;21441;52.190;20.910;2022-10-16T05:17:41;100383.75;;;12.26;100.00
35331;BME280;21441;52.190;20.910;2022-10-16T05:20:09;100387.47;;;12.25;100.00
35331;BME280;21441;52.190;20.910;2022-10-16T05:22:36;100389.81;;;12.20;100.00
35331;BME280;21441;52.190;20.910;2022-10-16T05:25:03;100386.13;;;12.21;100.00
35331;BME280;21441;52.190;20.910;2022-10-16T05:27:31;100380.31;;;12.17;100.00
35331;BME280;21441;52.190;20.910;2022-10-16T05:29:57;100379.94;;;12.21;100.00
35331;BME280;21441;52.190;20.910;2022-10-16T05:32:24;100383.94;;;12.02;100.00
35331;BME280;21441;52.190;20.910;2022-10-16T05:34:51;100382.91;;;12.03;100.00
35331;BME280;21441;52.190;20.910;2022-10-16T05:37:20;100379.16;;;12.12;100.00
35331;BME280;21441;52.190;20.910;2022-10-16T05:39:47;100368.84;;;12.09;100.00
35331;BME280;21441;52.190;20.910;2022-10-16T05:42:14;100384.06;;;12.08;100.00
35331;BME280;21441;52.190;20.910;2022-10-16T05:44:41;100376.84;;;12.09;100.00
35331;BME280;21441;52.190;20.910;2022-10-16T05:47:07;100386.84;;;12.15;100.00
35331;BME280;21441;52.190;20.910;2022-10-16T05:49:36;100391.59;;;12.28;100.00
35331;BME280;21441;52.190;20.910;2022-10-16T05:52:03;100395.06;;;12.36;100.00
35331;BME280;21441;52.190;20.910;2022-10-16T05:54:31;100392.06;;;12.08;100.00
35331;BME280;21441;52.190;20.910;2022-10-16T05:56:58;100399.41;;;12.14;100.00
35331;BME280;21441;52.190;20.910;2022-10-16T05:59:25;100407.16;;;12.24;100.00
35331;BME280;21441;52.190;20.910;2022-10-16T06:01:52;100409.59;;;12.11;100.00
35331;BME280;21441;52.190;20.910;2022-10-16T06:04:19;100408.31;;;12.30;100.00
35331;BME280;21441;52.190;20.910;2022-10-16T06:06:46;100402.88;;;12.38;100.00
35331;BME280;21441;52.190;20.910;2022-10-16T06:09:13;100408.19;;;12.46;100.00
35331;BME280;21441;52.190;20.910;2022-10-16T06:11:41;100413.34;;;12.48;100.00
35331;BME280;21441;52.190;20.910;2022-10-16T06:14:09;100409.31;;;12.52;100.00
35331;BME280;21441;52.190;20.910;2022-10-16T06:16:37;100412.56;;;12.62;100.00
35331;BME280;21441;52.190;20.910;2022-10-16T06:19:04;100416.66;;;12.73;100.00
35331;BME280;21441;52.190;20.910;2022-10-16T06:21:33;100423.69;;;12.89;100.00
35331;BME280;21441;52.190;20.910;2022-10-16T06:24:01;100421.66;;;12.91;100.00
35331;BME280;21441;52.190;20.910;2022-10-16T06:26:29;100421.88;;;12.89;100.00
35331;BME280;21441;52.190;20.910;2022-10-16T06:28:58;100416.00;;;13.09;100.00
35331;BME280;21441;52.190;20.910;2022-10-16T06:31:26;100422.50;;;13.29;100.00
35331;BME280;21441;52.190;20.910;2022-10-16T06:33:56;100428.94;;;13.65;100.00
35331;BME280;21441;52.190;20.910;2022-10-16T06:36:24;100427.25;;;13.93;100.00
35331;BME280;21441;52.190;20.910;2022-10-16T06:38:51;100424.59;;;14.15;100.00
35331;BME280;21441;52.190;20.910;2022-10-16T06:41:19;100424.88;;;14.41;100.00
35331;BME280;21441;52.190;20.910;2022-10-16T06:43:47;100438.34;;;14.91;100.00
35331;BME280;21441;52.190;20.910;2022-10-16T06:46:18;100445.25;;;14.79;100.00
35331;BME280;21441;52.190;20.910;2022-10-16T06:48:45;100444.81;;;14.54;100.00
35331;BME280;21441;52.190;20.910;2022-10-16T06:51:14;100439.31;;;14.62;100.00
35331;BME280;21441;52.190;20.910;2022-10-16T06:53:43;100439.50;;;14.39;100.00
35331;BME280;21441;52.190;20.910;2022-10-16T06:56:12;100439.63;;;14.31;100.00
35331;BME280;21441;52.190;20.910;2022-10-16T06:58:39;100445.31;;;14.42;100.00
35331;BME280;21441;52.190;20.910;2022-10-16T07:01:07;100459.41;;;14.08;100.00
35331;BME280;21441;52.190;20.910;2022-10-16T07:03:37;100456.91;;;13.92;100.00
35331;BME280;21441;52.190;20.910;2022-10-16T07:06:07;100464.44;;;13.96;100.00
35331;BME280;21441;52.190;20.910;2022-10-16T07:08:35;100459.69;;;13.98;100.00
35331;BME280;21441;52.190;20.910;2022-10-16T07:11:05;100464.28;;;13.68;100.00
35331;BME280;21441;52.190;20.910;2022-10-16T07:13:32;100458.81;;;13.61;100.00
35331;BME280;21441;52.190;20.910;2022-10-16T07:16:04;100453.53;;;13.68;100.00
35331;BME280;21441;52.190;20.910;2022-10-16T07:18:31;100460.47;;;13.77;100.00
35331;BME280;21441;52.190;20.910;2022-10-16T07:21:04;100464.78;;;13.78;100.00
35331;BME280;21441;52.190;20.910;2022-10-16T07:23:31;100468.50;;;13.92;100.00
35331;BME280;21441;52.190;20.910;2022-10-16T07:25:58;100465.16;;;13.90;100.00
35331;BME280;21441;52.190;20.910;2022-10-16T07:28:25;100461.75;;;14.18;100.00
35331;BME280;21441;52.190;20.910;2022-10-16T07:30:52;100438.19;;;14.13;100.00
35331;BME280;21441;52.190;20.910;2022-10-16T07:33:19;100432.19;;;14.11;100.00
35331;BME280;21441;52.190;20.910;2022-10-16T07:35:50;100433.09;;;14.40;100.00
35331;BME280;21441;52.190;20.910;2022-10-16T07:38:19;100435.91;;;14.96;100.00
35331;BME280;21441;52.190;20.910;2022-10-16T07:40:46;100444.56;;;15.20;100.00
35331;BME280;21441;52.190;20.910;2022-10-16T07:43:13;100455.31;;;15.20;100.00
35331;BME280;21441;52.190;20.910;2022-10-16T07:45:47;100466.25;;;15.18;100.00
35331;BME280;21441;52.190;20.910;2022-10-16T07:48:15;100464.91;;;15.36;100.00
35331;BME280;21441;52.190;20.910;2022-10-16T07:50:42;100455.44;;;15.40;100.00
35331;BME280;21441;52.190;20.910;2022-10-16T07:53:09;100459.53;;;15.71;100.00
35331;BME280;21441;52.190;20.910;2022-10-16T07:55:38;100454.03;;;15.79;100.00
35331;BME280;21441;52.190;20.910;2022-10-16T07:58:05;100459.66;;;15.97;100.00
35331;BME280;21441;52.190;20.910;2022-10-16T08:00:32;100451.34;;;15.85;100.00
35331;BME280;21441;52.190;20.910;2022-10-16T08:03:00;100458.41;;;15.93;100.00
35331;BME280;21441;52.190;20.910;2022-10-16T08:05:27;100477.34;;;16.20;100.00
35331;BME280;21441;52.190;20.910;2022-10-16T08:07:54;100467.66;;;16.32;100.00
35331;BME280;21441;52.190;20.910;2022-10-16T08:10:24;100475.75;;;16.45;100.00
35331;BME280;21441;52.190;20.910;2022-10-16T08:12:52;100474.53;;;16.68;99.16
35331;BME280;21441;52.190;20.910;2022-10-16T08:15:21;100486.75;;;16.64;97.64
35331;BME280;21441;52.190;20.910;2022-10-16T08:17:55;100483.53;;;16.82;96.59
35331;BME280;21441;52.190;20.910;2022-10-16T08:20:22;100493.44;;;16.88;94.10
35331;BME280;21441;52.190;20.910;2022-10-16T08:22:49;100479.34;;;16.86;94.37
35331;BME280;21441;52.190;20.910;2022-10-16T08:25:17;100476.88;;;17.24;93.07
35331;BME280;21441;52.190;20.910;2022-10-16T08:27:43;100484.50;;;17.47;90.21
35331;BME280;21441;52.190;20.910;2022-10-16T08:30:12;100485.47;;;17.73;88.34
35331;BME280;21441;52.190;20.910;2022-10-16T08:32:39;100489.41;;;17.90;85.78
35331;BME280;21441;52.190;20.910;2022-10-16T08:35:08;100493.31;;;18.01;84.71
35331;BME280;21441;52.190;20.910;2022-10-16T08:37:34;100491.56;;;18.13;84.08
35331;BME280;21441;52.190;20.910;2022-10-16T08:40:02;100504.31;;;18.00;83.75
35331;BME280;21441;52.190;20.910;2022-10-16T08:42:42;100506.22;;;17.79;84.39
35331;BME280;21441;52.190;20.910;2022-10-16T08:45:34;100499.41;;;17.83;84.43
35331;BME280;21441;52.190;20.910;2022-10-16T08:48:15;100502.72;;;17.85;84.63
35331;BME280;21441;52.190;20.910;2022-10-16T08:50:45;100510.16;;;17.97;83.92
35331;BME280;21441;52.190;20.910;2022-10-16T08:53:15;100501.53;;;18.20;82.23
35331;BME280;21441;52.190;20.910;2022-10-16T08:55:46;100506.53;;;18.16;81.92
35331;BME280;21441;52.190;20.910;2022-10-16T08:58:16;100509.09;;;17.98;82.51
35331;BME280;21441;52.190;20.910;2022-10-16T09:00:47;100503.06;;;17.96;82.14
35331;BME280;21441;52.190;20.910;2022-10-16T09:03:22;100500.00;;;17.92;82.29
35331;BME280;21441;52.190;20.910;2022-10-16T09:06:20;100517.13;;;18.11;81.74
35331;BME280;21441;52.190;20.910;2022-10-16T09:09:03;100519.56;;;18.26;80.86
35331;BME280;21441;52.190;20.910;2022-10-16T09:11:41;100515.22;;;18.25;79.99
35331;BME280;21441;52.190;20.910;2022-10-16T09:14:28;100514.97;;;18.71;77.83
35331;BME280;21441;52.190;20.910;2022-10-16T09:17:16;100506.03;;;19.28;73.54
35331;BME280;21441;52.190;20.910;2022-10-16T09:19:53;100498.06;;;19.76;72.44
35331;BME280;21441;52.190;20.910;2022-10-16T09:22:25;100494.41;;;19.89;69.82
35331;BME280;21441;52.190;20.910;2022-10-16T09:24:54;100481.84;;;20.25;67.94
35331;BME280;21441;52.190;20.910;2022-10-16T09:27:21;100488.41;;;20.48;66.63
35331;BME280;21441;52.190;20.910;2022-10-16T09:29:49;100477.78;;;20.76;63.37
35331;BME280;21441;52.190;20.910;2022-10-16T09:32:19;100502.88;;;20.41;65.51
35331;BME280;21441;52.190;20.910;2022-10-16T09:34:48;100485.44;;;20.68;64.56
35331;BME280;21441;52.190;20.910;2022-10-16T09:37:19;100492.91;;;20.24;65.38
35331;BME280;21441;52.190;20.910;2022-10-16T09:39:47;100486.34;;;20.31;64.60
35331;BME280;21441;52.190;20.910;2022-10-16T09:42:17;100484.09;;;19.98;67.07
35331;BME280;21441;52.190;20.910;2022-10-16T09:44:47;100482.38;;;20.15;66.16
35331;BME280;21441;52.190;20.910;2022-10-16T09:47:18;100486.00;;;20.58;64.13
35331;BME280;21441;52.190;20.910;2022-10-16T09:49:54;100493.19;;;21.06;62.98
35331;BME280;21441;52.190;20.910;2022-10-16T09:52:22;100490.41;;;22.00;59.40
35331;BME280;21441;52.190;20.910;2022-10-16T09:54:50;100477.03;;;22.85;54.40
35331;BME280;21441;52.190;20.910;2022-10-16T09:57:18;100468.56;;;24.42;49.32
35331;BME280;21441;52.190;20.910;2022-10-16T09:59:46;100467.88;;;24.84;48.21
35331;BME280;21441;52.190;20.910;2022-10-16T10:02:15;100471.47;;;24.58;48.59
35331;BME280;21441;52.190;20.910;2022-10-16T10:04:49;100473.72;;;24.17;49.06
35331;BME280;21441;52.190;20.910;2022-10-16T10:07:18;100471.06;;;25.08;47.42
35331;BME280;21441;52.190;20.910;2022-10-16T10:09:47;100487.72;;;24.25;48.43
35331;BME280;21441;52.190;20.910;2022-10-16T10:12:17;100479.81;;;24.78;47.29
35331;BME280;21441;52.190;20.910;2022-10-16T10:14:47;100476.63;;;26.50;44.56
35331;BME280;21441;52.190;20.910;2022-10-16T10:17:15;100468.47;;;26.96;42.90
35331;BME280;21441;52.190;20.910;2022-10-16T10:19:46;100468.72;;;27.35;41.59
35331;BME280;21441;52.190;20.910;2022-10-16T10:22:15;100459.41;;;27.42;42.14
35331;BME280;21441;52.190;20.910;2022-10-16T10:24:43;100456.41;;;27.33;41.78
35331;BME280;21441;52.190;20.910;2022-10-16T10:27:10;100454.41;;;26.00;44.77
35331;BME280;21441;52.190;20.910;2022-10-16T10:29:42;100455.06;;;26.89;42.85
35331;BME280;21441;52.190;20.910;2022-10-16T10:32:16;100458.34;;;24.05;48.11
35331;BME280;21441;52.190;20.910;2022-10-16T10:34:59;100467.84;;;22.40;52.74
35331;BME280;21441;52.190;20.910;2022-10-16T10:37:46;100475.00;;;21.18;57.41
35331;BME280;21441;52.190;20.910;2022-10-16T10:40:27;100478.91;;;20.57;60.11
35331;BME280;21441;52.190;20.910;2022-10-16T10:42:59;100483.66;;;20.13;63.47
35331;BME280;21441;52.190;20.910;2022-10-16T10:45:37;100473.56;;;19.90;65.48
35331;BME280;21441;52.190;20.910;2022-10-16T10:48:26;100480.88;;;20.19;64.84
35331;BME280;21441;52.190;20.910;2022-10-16T10:51:05;100467.88;;;20.70;61.90
35331;BME280;21441;52.190;20.910;2022-10-16T10:53:40;100470.88;;;21.04;61.59
35331;BME280;21441;52.190;20.910;2022-10-16T10:56:22;100465.75;;;20.72;61.13
35331;BME280;21441;52.190;20.910;2022-10-16T10:59:01;100488.44;;;19.99;63.86
35331;BME280;21441;52.190;20.910;2022-10-16T11:01:39;100473.06;;;20.60;62.19
35331;BME280;21441;52.190;20.910;2022-10-16T11:04:22;100470.25;;;20.48;62.83
35331;BME280;21441;52.190;20.910;2022-10-16T11:06:59;100467.56;;;20.48;63.17
35331;BME280;21441;52.190;20.910;2022-10-16T11:09:31;100475.84;;;20.23;63.76
35331;BME280;21441;52.190;20.910;2022-10-16T11:12:05;100480.69;;;20.33;64.01
35331;BME280;21441;52.190;20.910;2022-10-16T11:14:38;100468.19;;;20.20;65.17
35331;BME280;21441;52.190;20.910;2022-10-16T11:17:11;100462.66;;;19.96;65.47
35331;BME280;21441;52.190;20.910;2022-10-16T11:19:42;100470.97;;;20.44;63.82
35331;BME280;21441;52.190;20.910;2022-10-16T11:22:17;100458.50;;;20.85;61.74
35331;BME280;21441;52.190;20.910;2022-10-16T11:24:48;100457.25;;;21.98;56.68
35331;BME280;21441;52.190;20.910;2022-10-16T11:27:21;100470.94;;;22.32;55.92
35331;BME280;21441;52.190;20.910;2022-10-16T11:29:57;100460.06;;;22.95;53.62
35331;BME280;21441;52.190;20.910;2022-10-16T11:32:29;100470.78;;;22.22;55.57
35331;BME280;21441;52.190;20.910;2022-10-16T11:35:02;100479.47;;;21.83;56.34
35331;BME280;21441;52.190;20.910;2022-10-16T11:37:36;100479.63;;;21.65;58.64
35331;BME280;21441;52.190;20.910;2022-10-16T11:40:19;100481.41;;;22.00;57.53
35331;BME280;21441;52.190;20.910;2022-10-16T11:42:51;100481.59;;;23.69;51.64
35331;BME280;21441;52.190;20.910;2022-10-16T11:45:27;100463.31;;;25.85;46.56
35331;BME280;21441;52.190;20.910;2022-10-16T11:48:02;100456.38;;;25.57;46.31
35331;BME280;21441;52.190;20.910;2022-10-16T11:50:36;100456.06;;;24.74;48.01
35331;BME280;21441;52.190;20.910;2022-10-16T11:53:13;100441.38;;;25.17;47.13
35331;BME280;21441;52.190;20.910;2022-10-16T11:55:43;100440.19;;;26.08;45.03
35331;BME280;21441;52.190;20.910;2022-10-16T11:58:16;100444.72;;;24.05;49.14
35331;BME280;21441;52.190;20.910;2022-10-16T12:00:47;100444.22;;;24.36;48.40
35331;BME280;21441;52.190;20.910;2022-10-16T12:03:20;100457.88;;;23.09;51.86
35331;BME280;21441;52.190;20.910;2022-10-16T12:05:55;100465.03;;;22.35;53.96
35331;BME280;21441;52.190;20.910;2022-10-16T12:08:26;100475.41;;;22.38;54.66
35331;BME280;21441;52.190;20.910;2022-10-16T12:10:53;100476.28;;;22.56;54.07
35331;BME280;21441;52.190;20.910;2022-10-16T12:13:29;100463.22;;;23.03;53.00
35331;BME280;21441;52.190;20.910;2022-10-16T12:16:05;100454.59;;;23.45;51.52
35331;BME280;21441;52.190;20.910;2022-10-16T12:18:32;100461.41;;;23.87;50.60
35331;BME280;21441;52.190;20.910;2022-10-16T12:20:59;100471.03;;;24.71;48.58
35331;BME280;21441;52.190;20.910;2022-10-16T12:23:32;100478.75;;;23.42;51.59
35331;BME280;21441;52.190;20.910;2022-10-16T12:25:59;100471.94;;;23.22;51.61
35331;BME280;21441;52.190;20.910;2022-10-16T12:28:28;100476.69;;;22.64;53.47
35331;BME280;21441;52.190;20.910;2022-10-16T12:30:57;100474.84;;;21.96;55.49
35331;BME280;21441;52.190;20.910;2022-10-16T12:33:26;100477.59;;;22.70;53.07
35331;BME280;21441;52.190;20.910;2022-10-16T12:35:55;100471.22;;;23.10;52.72
35331;BME280;21441;52.190;20.910;2022-10-16T12:38:26;100476.44;;;22.49;54.10
35331;BME280;21441;52.190;20.910;2022-10-16T12:40:56;100491.06;;;22.31;55.30
35331;BME280;21441;52.190;20.910;2022-10-16T12:43:35;100493.25;;;20.88;60.69
35331;BME280;21441;52.190;20.910;2022-10-16T12:46:19;100484.41;;;20.50;63.31
35331;BME280;21441;52.190;20.910;2022-10-16T12:48:47;100491.19;;;20.29;64.31
35331;BME280;21441;52.190;20.910;2022-10-16T12:51:22;100494.66;;;19.99;66.26